createdAt,value
2023-02-16T00:01:56.357Z,55.04
2023-02-16T00:04:27.170Z,55.20
2023-02-16T00:06:55.738Z,55.56
2023-02-16T00:09:24.331Z,55.85
2023-02-16T00:12:11.590Z,55.86
2023-02-16T00:14:41.592Z,55.91
2023-02-16T00:17:10.565Z,55.80
2023-02-16T00:19:40.125Z,56.02
2023-02-16T00:22:08.771Z,56.12
2023-02-16T00:24:38.066Z,56.07
2023-02-16T00:27:14.304Z,56.01
2023-02-16T00:29:44.779Z,55.84
2023-02-16T00:32:14.923Z,55.76
2023-02-16T00:34:46.663Z,55.78
2023-02-16T00:37:16.468Z,56.02
2023-02-16T00:39:45.463Z,55.95
2023-02-16T00:42:19.220Z,56.06
2023-02-16T00:44:49.143Z,56.28
2023-02-16T00:47:18.704Z,56.16
2023-02-16T00:49:48.297Z,56.28
2023-02-16T00:52:18.637Z,56.35
2023-02-16T00:54:47.226Z,56.45
2023-02-16T00:57:17.349Z,56.49
2023-02-16T00:59:46.346Z,56.55
2023-02-16T01:02:15.856Z,56.25
2023-02-16T01:04:44.509Z,56.52
2023-02-16T01:07:32.174Z,56.42
2023-02-16T01:10:19.396Z,56.45
2023-02-16T01:12:47.776Z,56.79
2023-02-16T01:15:16.976Z,56.88
2023-02-16T01:17:45.460Z,57.12
2023-02-16T01:20:21.659Z,57.49
2023-02-16T01:22:50.109Z,57.53
2023-02-16T01:25:22.698Z,57.77
2023-02-16T01:27:51.482Z,57.77
2023-02-16T01:30:21.376Z,57.98
2023-02-16T01:32:52.953Z,58.25
2023-02-16T01:35:29.838Z,58.17
2023-02-16T01:37:58.115Z,58.29
2023-02-16T01:40:30.391Z,58.60
2023-02-16T01:43:20.081Z,58.96
2023-02-16T01:45:55.006Z,58.85
2023-02-16T01:48:28.103Z,59.16
2023-02-16T01:51:29.966Z,59.50
2023-02-16T01:54:23.339Z,59.76
2023-02-16T01:57:00.625Z,59.61
2023-02-16T01:59:53.605Z,59.89
2023-02-16T02:04:59.568Z,59.81
2023-02-16T02:07:32.253Z,59.92
2023-02-16T02:10:21.931Z,59.84
2023-02-16T02:12:59.972Z,59.75
2023-02-16T02:15:29.957Z,59.90
2023-02-16T02:17:58.953Z,59.88
2023-02-16T02:20:50.381Z,59.90
2023-02-16T02:23:33.399Z,59.90
2023-02-16T02:26:39.063Z,59.91
2023-02-16T02:29:12.250Z,59.73
2023-02-16T02:32:09.991Z,59.75
2023-02-16T02:34:54.177Z,59.71
2023-02-16T02:37:50.720Z,59.82
2023-02-16T02:40:42.044Z,60.12
2023-02-16T02:43:13.808Z,60.10
2023-02-16T02:46:04.092Z,60.61
2023-02-16T02:48:33.395Z,60.95
2023-02-16T02:51:27.189Z,60.81
2023-02-16T02:54:26.280Z,61.00
2023-02-16T02:57:40.484Z,60.84
2023-02-16T03:00:39.674Z,60.81
2023-02-16T03:03:36.511Z,61.01
2023-02-16T03:06:06.566Z,61.24
2023-02-16T03:08:35.600Z,61.36
2023-02-16T03:11:31.228Z,61.58
2023-02-16T03:14:27.249Z,61.45
2023-02-16T03:17:19.388Z,61.59
2023-02-16T03:20:09.474Z,61.52
2023-02-16T03:22:57.105Z,61.72
2023-02-16T03:25:47.909Z,61.84
2023-02-16T03:28:35.239Z,61.79
2023-02-16T03:31:04.553Z,61.66
2023-02-16T03:33:33.323Z,61.83
2023-02-16T03:36:01.706Z,61.42
2023-02-16T03:38:33.157Z,61.45
2023-02-16T03:41:01.982Z,61.26
2023-02-16T03:43:30.846Z,61.06
2023-02-16T03:45:59.250Z,60.92
2023-02-16T03:48:27.814Z,61.02
2023-02-16T03:50:56.592Z,60.77
2023-02-16T03:53:25.382Z,60.78
2023-02-16T03:55:54.802Z,60.96
2023-02-16T03:58:25.332Z,61.03
2023-02-16T04:00:53.906Z,60.86
2023-02-16T04:03:22.814Z,60.70
2023-02-16T04:05:54.457Z,60.76
2023-02-16T04:08:23.861Z,60.76
2023-02-16T04:10:55.727Z,60.54
2023-02-16T04:13:24.723Z,60.78
2023-02-16T04:15:53.105Z,60.76
2023-02-16T04:18:21.484Z,60.91
2023-02-16T04:20:50.379Z,60.94
2023-02-16T04:23:18.962Z,60.66
2023-02-16T04:25:47.648Z,60.71
2023-02-16T04:28:16.039Z,60.74
2023-02-16T04:30:44.495Z,60.70
2023-02-16T04:33:13.025Z,61.03
2023-02-16T04:35:41.578Z,61.02
2023-02-16T04:38:13.133Z,60.95
2023-02-16T04:40:42.232Z,60.86
2023-02-16T04:43:10.613Z,60.95
2023-02-16T04:45:38.994Z,60.96
2023-02-16T04:48:07.371Z,60.94
2023-02-16T04:50:36.170Z,61.00
2023-02-16T04:53:04.543Z,60.94
2023-02-16T04:55:33.025Z,61.08
2023-02-16T04:58:01.309Z,60.99
2023-02-16T05:00:30.705Z,61.04
2023-02-16T05:02:59.085Z,60.88
2023-02-16T05:05:27.775Z,61.00
2023-02-16T05:07:56.155Z,61.11
2023-02-16T05:10:24.642Z,60.98
2023-02-16T05:13:12.612Z,61.08
2023-02-16T05:15:45.451Z,61.06
2023-02-16T05:18:19.280Z,61.19
2023-02-16T05:21:12.943Z,61.41
2023-02-16T05:23:42.358Z,61.52
2023-02-16T05:26:10.736Z,61.69
2023-02-16T05:28:40.545Z,61.55
2023-02-16T05:31:09.034Z,61.37
2023-02-16T05:33:38.429Z,61.38
2023-02-16T05:36:07.067Z,61.44
2023-02-16T05:38:36.323Z,61.58
2023-02-16T05:41:05.116Z,61.76
2023-02-16T05:43:34.618Z,61.95
2023-02-16T05:46:08.604Z,62.03
2023-02-16T05:48:37.935Z,62.30
2023-02-16T05:51:06.823Z,62.44
2023-02-16T05:53:35.415Z,62.49
2023-02-16T05:56:05.431Z,62.56
2023-02-16T05:58:36.582Z,62.61
2023-02-16T06:01:05.612Z,62.81
2023-02-16T06:03:36.073Z,63.12
2023-02-16T06:06:05.409Z,63.28
2023-02-16T06:08:36.798Z,63.43
2023-02-16T06:11:07.242Z,63.65
2023-02-16T06:13:40.889Z,63.70
2023-02-16T06:16:10.684Z,63.82
2023-02-16T06:18:39.290Z,63.77
2023-02-16T06:21:07.670Z,63.56
2023-02-16T06:23:36.018Z,63.63
2023-02-16T06:26:05.044Z,63.64
2023-02-16T06:28:33.937Z,63.78
2023-02-16T06:31:03.201Z,63.80
2023-02-16T06:33:31.830Z,64.03
2023-02-16T06:36:01.272Z,64.07
2023-02-16T06:38:30.439Z,63.97
2023-02-16T06:40:58.911Z,64.04
2023-02-16T06:43:28.757Z,64.21
2023-02-16T06:45:58.329Z,64.26
2023-02-16T06:48:27.227Z,64.16
2023-02-16T06:50:55.708Z,64.00
2023-02-16T06:53:25.722Z,63.49
2023-02-16T06:55:54.308Z,63.64
2023-02-16T06:58:22.795Z,63.48
2023-02-16T07:00:51.314Z,63.55
2023-02-16T07:03:19.873Z,63.55
2023-02-16T07:05:49.674Z,63.45
2023-02-16T07:08:18.254Z,63.24
2023-02-16T07:10:50.434Z,63.20
2023-02-16T07:13:18.936Z,63.25
2023-02-16T07:15:47.698Z,63.19
2023-02-16T07:18:16.702Z,63.11
2023-02-16T07:20:45.992Z,63.20
2023-02-16T07:23:14.378Z,63.37
2023-02-16T07:25:42.751Z,63.41
2023-02-16T07:28:12.471Z,63.45
2023-02-16T07:30:41.358Z,63.57
2023-02-16T07:33:10.050Z,63.69
2023-02-16T07:35:38.423Z,63.24
2023-02-16T07:38:06.908Z,63.12
2023-02-16T07:40:36.102Z,62.76
2023-02-16T07:43:07.662Z,62.75
2023-02-16T07:45:36.657Z,62.74
2023-02-16T07:48:05.549Z,62.77
2023-02-16T07:50:34.434Z,62.82
2023-02-16T07:53:03.325Z,63.00
2023-02-16T07:55:33.146Z,62.79
2023-02-16T07:58:05.000Z,62.94
2023-02-16T08:00:35.019Z,62.74
2023-02-16T08:03:03.978Z,62.14
2023-02-16T08:05:34.375Z,61.63
2023-02-16T08:08:02.838Z,61.29
2023-02-16T08:10:36.658Z,61.00
2023-02-16T08:13:05.321Z,60.79
2023-02-16T08:15:33.909Z,60.35
2023-02-16T08:18:02.800Z,60.21
2023-02-16T08:20:48.194Z,60.09
2023-02-16T08:23:19.633Z,60.00
2023-02-16T08:25:48.628Z,60.18
2023-02-16T08:28:17.630Z,59.90
2023-02-16T08:30:46.316Z,59.86
2023-02-16T08:33:15.103Z,59.99
2023-02-16T08:35:45.528Z,60.15
2023-02-16T08:38:13.914Z,60.56
2023-02-16T08:40:48.878Z,60.92
2023-02-16T08:43:17.532Z,60.77
2023-02-16T08:45:51.996Z,60.83
2023-02-16T08:48:20.439Z,60.91
2023-02-16T08:50:55.275Z,61.00
2023-02-16T08:53:25.496Z,60.67
2023-02-16T08:55:57.873Z,60.56
2023-02-16T08:58:27.163Z,60.58
2023-02-16T09:00:55.628Z,60.90
2023-02-16T09:03:25.383Z,60.92
2023-02-16T09:05:55.279Z,61.01
2023-02-16T09:08:23.765Z,60.72
2023-02-16T09:10:52.142Z,60.72
2023-02-16T09:13:22.138Z,60.84
2023-02-16T09:15:51.258Z,60.43
2023-02-16T09:18:23.232Z,60.48
2023-02-16T09:20:52.020Z,60.25
2023-02-16T09:23:22.152Z,60.00
2023-02-16T09:25:50.681Z,60.26
2023-02-16T09:28:19.308Z,60.38
2023-02-16T09:30:47.825Z,60.54
2023-02-16T09:33:17.916Z,60.28
2023-02-16T09:35:46.499Z,59.96
2023-02-16T09:38:17.135Z,59.59
2023-02-16T09:40:46.130Z,59.28
2023-02-16T09:43:36.016Z,59.31
2023-02-16T09:46:09.291Z,59.19
2023-02-16T09:48:38.421Z,59.58
2023-02-16T09:51:33.611Z,59.16
2023-02-16T09:54:10.038Z,59.14
2023-02-16T09:56:40.685Z,59.44
2023-02-16T09:59:14.771Z,59.34
2023-02-16T10:01:49.468Z,59.21
2023-02-16T10:04:44.257Z,59.08
2023-02-16T10:07:20.677Z,58.97
2023-02-16T10:09:51.372Z,58.95
2023-02-16T10:12:24.468Z,59.35
2023-02-16T10:14:54.726Z,59.52
2023-02-16T10:17:36.183Z,59.37
2023-02-16T10:20:23.524Z,59.22
2023-02-16T10:23:25.173Z,58.95
2023-02-16T10:25:57.754Z,59.07
2023-02-16T10:28:48.666Z,58.72
2023-02-16T10:31:20.921Z,58.17
2023-02-16T10:34:41.670Z,58.09
2023-02-16T10:37:21.497Z,57.69
2023-02-16T10:39:57.251Z,58.05
2023-02-16T10:42:33.729Z,57.80
2023-02-16T10:45:25.238Z,57.80
2023-02-16T10:47:55.786Z,56.28
2023-02-16T10:50:57.446Z,56.36
2023-02-16T10:53:32.074Z,56.14
2023-02-16T10:56:01.706Z,56.13
2023-02-16T10:58:39.303Z,56.03
2023-02-16T11:01:42.950Z,55.33
2023-02-16T11:04:40.255Z,52.84
2023-02-16T11:07:12.226Z,51.76
2023-02-16T11:09:41.394Z,49.90
2023-02-16T11:12:40.939Z,48.99
2023-02-16T11:15:17.008Z,50.18
2023-02-16T11:17:51.113Z,49.65
2023-02-16T11:20:45.196Z,48.26
2023-02-16T11:23:41.860Z,46.98
2023-02-16T11:26:10.406Z,47.78
2023-02-16T11:28:46.697Z,47.71
2023-02-16T11:31:34.183Z,47.86
2023-02-16T11:34:35.073Z,47.44
2023-02-16T11:37:13.898Z,46.80
2023-02-16T11:39:50.679Z,46.44
2023-02-16T11:42:27.965Z,46.44
2023-02-16T11:44:58.018Z,46.09
2023-02-16T11:47:28.716Z,46.13
2023-02-16T11:50:24.131Z,46.27
2023-02-16T11:52:55.174Z,45.68
2023-02-16T11:55:33.508Z,45.50
2023-02-16T11:58:22.969Z,45.92
2023-02-16T12:01:37.430Z,46.25
2023-02-16T12:04:20.760Z,46.11
2023-02-16T12:07:17.975Z,45.61
2023-02-16T12:09:53.974Z,45.41
2023-02-16T12:12:37.366Z,44.91
2023-02-16T12:15:15.415Z,45.07
2023-02-16T12:17:50.963Z,44.72
2023-02-16T12:20:37.955Z,44.95
2023-02-16T12:23:41.794Z,45.56
2023-02-16T12:26:19.296Z,45.79
2023-02-16T12:28:59.444Z,46.18
2023-02-16T12:32:05.055Z,47.02
2023-02-16T12:34:37.880Z,47.28
2023-02-16T12:37:09.233Z,47.80
2023-02-16T12:39:47.034Z,48.35
2023-02-16T12:42:30.755Z,48.54
2023-02-16T12:45:04.170Z,48.16
2023-02-16T12:47:37.061Z,48.50
2023-02-16T12:50:28.177Z,48.52
2023-02-16T12:53:17.747Z,48.75
2023-02-16T12:55:57.083Z,47.42
2023-02-16T12:58:42.800Z,47.33
2023-02-16T13:01:14.932Z,47.45
2023-02-16T13:03:51.065Z,47.13
2023-02-16T13:06:44.986Z,47.05
2023-02-16T13:09:34.360Z,46.23
2023-02-16T13:12:31.723Z,45.59
2023-02-16T13:15:14.418Z,45.60
2023-02-16T13:18:01.256Z,45.72
2023-02-16T13:20:33.224Z,45.31
2023-02-16T13:23:13.491Z,45.12
2023-02-16T13:25:57.263Z,45.47
2023-02-16T13:29:00.914Z,45.43
2023-02-16T13:31:56.596Z,45.84
2023-02-16T13:34:38.656Z,46.14
2023-02-16T13:37:58.551Z,45.66
2023-02-16T13:40:45.968Z,45.90
2023-02-16T13:43:30.432Z,46.12
2023-02-16T13:45:59.562Z,45.99
2023-02-16T13:48:33.639Z,46.27
2023-02-16T13:51:04.513Z,46.64
2023-02-16T13:53:38.954Z,47.26
2023-02-16T13:56:23.595Z,47.44
2023-02-16T13:58:53.065Z,47.28
2023-02-16T14:01:39.783Z,47.28
2023-02-16T14:04:32.317Z,46.92
2023-02-16T14:07:01.532Z,47.25
2023-02-16T14:09:39.359Z,47.43
2023-02-16T14:12:32.203Z,48.23
2023-02-16T14:15:05.507Z,48.60
2023-02-16T14:17:35.190Z,49.13
2023-02-16T14:22:21.403Z,49.60
2023-02-16T14:24:53.426Z,49.42
2023-02-16T14:27:41.514Z,49.47
2023-02-16T14:30:27.194Z,49.53
2023-02-16T14:33:15.869Z,49.79
2023-02-16T14:36:14.340Z,50.12
2023-02-16T14:38:41.802Z,50.31
2023-02-16T14:41:25.539Z,50.37
2023-02-16T14:44:25.437Z,50.26
2023-02-16T14:47:15.140Z,50.54
2023-02-16T14:49:56.842Z,50.97
2023-02-16T14:52:45.490Z,51.16
2023-02-16T14:55:25.751Z,51.44
2023-02-16T14:58:03.757Z,51.57
2023-02-16T15:00:53.440Z,51.85
2023-02-16T15:03:22.248Z,52.07
2023-02-16T15:05:57.469Z,52.29
2023-02-16T15:08:34.767Z,52.58
2023-02-16T15:11:11.896Z,52.99
2023-02-16T15:13:42.474Z,52.96
2023-02-16T15:16:13.293Z,53.07
2023-02-16T15:18:47.256Z,53.00
2023-02-16T15:21:22.671Z,52.95
2023-02-16T15:23:52.750Z,53.06
2023-02-16T15:26:25.678Z,53.32
2023-02-16T15:29:00.524Z,53.23
2023-02-16T15:31:36.423Z,53.59
2023-02-16T15:34:13.250Z,53.69
2023-02-16T15:36:43.115Z,53.80
2023-02-16T15:39:48.447Z,53.78
2023-02-16T15:42:21.603Z,53.69
2023-02-16T15:44:49.064Z,54.25
2023-02-16T15:47:21.673Z,54.08
2023-02-16T15:49:48.998Z,54.26
2023-02-16T15:52:25.364Z,54.35
2023-02-16T15:54:52.198Z,54.19
2023-02-16T15:57:36.257Z,54.49
2023-02-16T18:23:01.049Z,59.38
2023-02-16T18:25:29.678Z,58.11
2023-02-16T18:27:59.073Z,58.43
2023-02-16T18:30:27.667Z,58.52
2023-02-16T18:32:56.859Z,58.69
2023-02-16T18:35:25.446Z,58.91
2023-02-16T18:37:54.656Z,59.04
2023-02-16T18:40:23.335Z,59.20
2023-02-16T18:42:52.536Z,59.39
2023-02-16T18:45:20.918Z,59.75
2023-02-16T18:47:50.013Z,59.98
2023-02-16T18:50:18.394Z,60.20
2023-02-16T18:52:47.497Z,60.34
2023-02-16T18:55:16.599Z,60.50
2023-02-16T18:57:44.977Z,60.65
2023-02-16T19:00:15.000Z,60.87
2023-02-16T19:02:43.474Z,61.07
2023-02-16T19:05:11.852Z,61.15
2023-02-16T19:07:40.441Z,61.24
2023-02-16T19:10:12.308Z,61.34
2023-02-16T19:12:40.896Z,61.46
2023-02-16T19:15:09.899Z,61.49
2023-02-16T19:17:39.392Z,61.28
2023-02-16T19:20:11.885Z,61.36
2023-02-16T19:22:40.451Z,61.29
2023-02-16T19:25:09.242Z,61.49
2023-02-16T19:27:37.722Z,61.65
2023-02-16T19:30:07.291Z,61.60
2023-02-16T19:32:35.826Z,61.76
2023-02-16T19:35:05.122Z,61.70
2023-02-16T19:37:34.111Z,61.76
2023-02-16T19:40:03.205Z,61.60
2023-02-16T19:42:31.692Z,61.60
2023-02-16T19:45:00.373Z,61.61
2023-02-16T19:47:28.960Z,61.40
2023-02-16T19:49:57.756Z,61.63
2023-02-16T19:52:26.237Z,61.52
2023-02-16T19:54:54.924Z,61.47
2023-02-16T19:57:23.621Z,61.30
2023-02-16T19:59:51.993Z,61.15
2023-02-16T20:02:20.504Z,61.26
2023-02-16T20:04:48.856Z,60.88
2023-02-16T20:07:19.288Z,60.98
2023-02-16T20:09:48.385Z,60.99
2023-02-16T20:12:16.772Z,60.99
2023-02-16T20:14:46.480Z,61.03
2023-02-16T20:17:15.586Z,60.83
2023-02-16T20:19:44.371Z,60.90
2023-02-16T20:22:13.266Z,61.01
2023-02-16T20:24:41.650Z,60.98
2023-02-16T20:27:10.439Z,61.40
2023-02-16T20:29:39.025Z,61.65
2023-02-16T20:32:08.383Z,61.76
2023-02-16T20:34:37.951Z,62.30
2023-02-16T20:37:06.731Z,62.61
2023-02-16T20:39:35.731Z,62.78
2023-02-16T20:42:04.414Z,62.94
2023-02-16T20:44:33.004Z,63.08
2023-02-16T20:47:01.591Z,63.04
2023-02-16T20:49:30.377Z,63.11
2023-02-16T20:51:58.759Z,63.21
2023-02-16T20:54:27.140Z,63.20
2023-02-16T20:56:55.628Z,63.00
2023-02-16T20:59:24.005Z,62.91
2023-02-16T21:01:53.106Z,62.88
2023-02-16T21:04:23.232Z,62.83
2023-02-16T21:06:53.552Z,62.89
2023-02-16T21:09:22.140Z,63.00
2023-02-16T21:11:50.725Z,62.87
2023-02-16T21:14:19.516Z,62.98
2023-02-16T21:16:48.926Z,63.03
2023-02-16T21:19:23.316Z,63.13
2023-02-16T21:21:52.857Z,63.29
2023-02-16T21:24:21.555Z,63.36
2023-02-16T21:26:49.933Z,63.74
2023-02-16T21:29:18.412Z,63.66
2023-02-16T21:31:46.893Z,63.78
2023-02-16T21:34:15.933Z,63.88
2023-02-16T21:36:44.683Z,63.82
2023-02-16T21:39:13.581Z,63.60
2023-02-16T21:41:41.894Z,63.35
2023-02-16T21:44:14.591Z,63.69
2023-02-16T21:46:43.743Z,63.51
2023-02-16T21:49:15.193Z,63.56
2023-02-16T21:51:44.010Z,63.48
2023-02-16T21:54:14.914Z,63.32
2023-02-16T21:56:45.179Z,63.40
2023-02-16T21:59:15.936Z,63.34
2023-02-16T22:01:48.980Z,63.29
2023-02-16T22:04:19.664Z,63.49
2023-02-16T22:06:49.717Z,63.58
2023-02-16T22:09:20.307Z,63.45
2023-02-16T22:11:49.365Z,63.54
2023-02-16T22:14:17.758Z,63.86
2023-02-16T22:16:48.536Z,63.96
2023-02-16T22:19:18.106Z,64.17
2023-02-16T22:21:47.008Z,64.14
2023-02-16T22:24:17.252Z,64.04
2023-02-16T22:26:49.699Z,64.04
2023-02-16T22:29:18.588Z,63.89
2023-02-16T22:31:48.385Z,63.93
2023-02-16T22:34:19.242Z,63.80
2023-02-16T22:36:48.244Z,63.80
2023-02-16T22:39:17.316Z,63.64
2023-02-16T22:41:45.623Z,63.49
2023-02-16T22:44:15.954Z,63.27
2023-02-16T22:46:44.232Z,63.36
2023-02-16T22:49:15.495Z,63.48
2023-02-16T22:51:43.963Z,63.67
2023-02-16T22:54:17.055Z,63.69
2023-02-16T22:56:45.442Z,63.87
2023-02-16T22:59:13.825Z,64.10
2023-02-16T23:01:42.413Z,64.11
2023-02-16T23:04:15.337Z,64.00
2023-02-16T23:06:47.056Z,64.14
2023-02-16T23:09:20.967Z,64.19
2023-02-16T23:11:50.064Z,64.45
2023-02-16T23:14:19.135Z,64.38
2023-02-16T23:16:52.025Z,64.55
2023-02-16T23:19:25.038Z,64.40
2023-02-16T23:21:53.650Z,64.25
2023-02-16T23:24:23.156Z,64.30
2023-02-16T23:26:52.548Z,64.07
2023-02-16T23:29:21.128Z,64.15
2023-02-16T23:31:51.717Z,63.97
2023-02-16T23:34:20.585Z,64.16
2023-02-16T23:36:49.342Z,64.08
2023-02-16T23:39:18.455Z,64.21
2023-02-16T23:41:46.819Z,64.47
2023-02-16T23:44:15.415Z,64.40
2023-02-16T23:46:43.729Z,64.35
2023-02-16T23:49:12.126Z,64.53
2023-02-16T23:51:41.472Z,64.55
2023-02-16T23:54:11.709Z,64.40
2023-02-16T23:56:40.113Z,64.31
2023-02-16T23:59:08.565Z,64.16
